Time;durP1;ratioP1;P1;durP2;ratioP2;P2;SDS_P1;SDS_P2;PMS_P1;PMS_P2;Temp;Humidity;BMP_temperature;BMP_pressure;BME280_temperature;BME280_humidity;BME280_pressure;Samples;Min_cycle;Max_cycle;Signal;HPM_P1;HPM_P2
2023/03/29 00:16:29;;;;;;;;;7.00;4.00;;;;;6.76;67.95;101543.97;5011207;28;11148;-67
2023/03/29 00:18:55;;;;;;;;;4.00;4.00;;;;;6.78;68.11;101531.31;5012787;28;11763;-66
2023/03/29 00:21:22;;;;;;;;;7.50;5.25;;;;;6.78;68.65;101528.63;5008639;28;11061;-66
2023/03/29 00:23:49;;;;;;;;;5.00;5.00;;;;;6.80;68.59;101523.13;5012180;28;11095;-67
2023/03/29 00:26:15;;;;;;;;;4.50;2.50;;;;;6.83;68.20;101523.66;5010900;28;11121;-67
2023/03/29 00:28:42;;;;;;;;;5.00;2.00;;;;;6.87;68.28;101519.69;4995243;28;10981;-67
2023/03/29 00:31:12;;;;;;;;;3.50;3.00;;;;;6.88;67.94;101518.69;4981843;28;11003;-67
2023/03/29 00:33:40;;;;;;;;;4.00;4.00;;;;;6.91;68.26;101510.34;4993960;28;11065;-67
2023/03/29 00:36:09;;;;;;;;;4.00;1.75;;;;;6.98;68.70;101517.78;4975140;28;10867;-66
2023/03/29 00:38:36;;;;;;;;;6.25;4.75;;;;;7.00;68.06;101521.13;4999750;28;10900;-67
2023/03/29 00:41:03;;;;;;;;;5.50;5.00;;;;;6.98;68.22;101507.06;5011026;28;11150;-68
2023/03/29 00:43:30;;;;;;;;;4.25;4.25;;;;;6.98;68.18;101512.41;4991429;28;11108;-67
2023/03/29 00:45:56;;;;;;;;;4.00;2.75;;;;;6.91;68.02;101499.66;4975116;28;11506;-65
2023/03/29 00:48:27;;;;;;;;;3.00;3.00;;;;;6.88;67.85;101504.47;4996387;28;10861;-66
2023/03/29 00:51:07;;;;;;;;;5.50;4.25;;;;;6.90;68.19;101497.13;4986405;28;10997;-65
2023/03/29 00:53:41;;;;;;;;;4.75;2.00;;;;;6.93;68.22;101489.63;5011848;28;11215;-67
2023/03/29 00:56:18;;;;;;;;;7.25;3.50;;;;;6.95;68.16;101492.16;4994371;28;11024;-66
2023/03/29 00:58:57;;;;;;;;;4.00;4.00;;;;;6.93;68.02;101486.13;4989477;28;11054;-65
2023/03/29 01:01:53;;;;;;;;;5.00;4.00;;;;;6.92;68.09;101489.78;4991498;28;10902;-65
2023/03/29 01:04:35;;;;;;;;;7.50;5.50;;;;;6.93;68.16;101488.81;5010858;28;11016;-65
2023/03/29 01:07:12;;;;;;;;;3.00;3.00;;;;;6.95;68.41;101486.78;5000925;28;11012;-66
2023/03/29 01:09:42;;;;;;;;;4.00;4.00;;;;;6.96;68.13;101484.97;5009559;28;11007;-65
2023/03/29 01:12:15;;;;;;;;;2.00;1.75;;;;;6.99;68.44;101482.81;4991190;28;10976;-65
2023/03/29 01:14:58;;;;;;;;;4.00;4.00;;;;;7.03;68.75;101483.34;4984757;28;11004;-65
2023/03/29 01:17:24;;;;;;;;;4.50;2.25;;;;;7.03;68.00;101480.66;5010357;28;11084;-66
2023/03/29 01:19:58;;;;;;;;;2.00;1.00;;;;;6.99;68.25;101473.94;4991199;28;10857;-65
2023/03/29 01:22:43;;;;;;;;;2.25;2.25;;;;;7.03;68.91;101472.63;4993034;28;10918;-65
2023/03/29 01:25:25;;;;;;;;;4.00;4.00;;;;;7.03;68.45;101476.16;4987509;28;11006;-66
2023/03/29 01:28:01;;;;;;;;;3.50;3.50;;;;;6.97;68.02;101471.44;5010986;28;11087;-67
2023/03/29 01:30:33;;;;;;;;;4.75;4.50;;;;;6.97;68.46;101468.75;4996294;28;10993;-64
2023/03/29 01:33:19;;;;;;;;;5.50;4.00;;;;;6.97;68.52;101476.78;4999823;28;10977;-64
2023/03/29 01:36:06;;;;;;;;;4.50;4.00;;;;;6.93;68.58;101470.91;5009630;28;10956;-66
2023/03/29 01:38:44;;;;;;;;;6.50;5.50;;;;;6.93;68.89;101470.06;5005474;28;11193;-65
2023/03/29 01:41:11;;;;;;;;;7.75;5.00;;;;;6.90;69.00;101471.22;4984845;28;11017;-65
2023/03/29 01:43:43;;;;;;;;;5.00;5.00;;;;;6.83;68.84;101466.63;5009318;28;11658;-66
2023/03/29 01:46:23;;;;;;;;;4.00;4.00;;;;;6.85;69.17;101460.13;4994117;28;11068;-65
2023/03/29 01:48:55;;;;;;;;;5.25;4.00;;;;;6.86;69.38;101461.81;5003582;28;10983;-65
2023/03/29 01:51:35;;;;;;;;;4.50;4.00;;;;;6.87;68.81;101446.59;4990443;28;11105;-66
2023/03/29 01:54:31;;;;;;;;;5.25;4.00;;;;;6.97;69.63;101447.34;4986249;28;11111;-65
2023/03/29 01:57:03;;;;;;;;;5.50;5.50;;;;;6.88;68.93;101441.06;4976077;28;11243;-66
2023/03/29 01:59:33;;;;;;;;;5.25;4.50;;;;;6.96;68.99;101444.81;4989195;28;11083;-66
2023/03/29 02:02:04;;;;;;;;;4.00;4.00;;;;;6.93;68.71;101445.97;5009493;28;10926;-65
2023/03/29 02:04:39;;;;;;;;;5.75;5.75;;;;;7.01;69.54;101434.47;5005197;28;11029;-65
2023/03/29 02:07:09;;;;;;;;;2.00;2.00;;;;;7.06;68.79;101432.19;5008850;28;10991;-66
2023/03/29 02:09:37;;;;;;;;;4.00;4.00;;;;;7.08;68.91;101440.88;5007981;28;10945;-64
2023/03/29 02:12:07;;;;;;;;;4.00;4.00;;;;;7.09;68.68;101438.06;4993715;28;10908;-65
2023/03/29 02:14:34;;;;;;;;;4.00;4.00;;;;;7.09;69.40;101432.72;5010200;28;10934;-65
2023/03/29 02:17:22;;;;;;;;;6.25;5.00;;;;;7.13;68.85;101430.53;4989455;28;11531;-67
2023/03/29 02:19:53;;;;;;;;;6.00;5.75;;;;;7.01;69.00;101424.63;5008010;28;10911;-66
2023/03/29 02:22:28;;;;;;;;;10.25;8.00;;;;;7.00;69.49;101424.75;5009112;28;11164;-66
2023/03/29 02:24:58;;;;;;;;;4.75;4.75;;;;;7.05;69.06;101422.44;4973409;28;11094;-66
2023/03/29 02:27:28;;;;;;;;;7.25;7.25;;;;;7.07;69.06;101418.63;4993281;28;11008;-65
2023/03/29 02:29:56;;;;;;;;;6.25;5.75;;;;;7.10;69.12;101422.84;4975218;28;11120;-66
2023/03/29 02:32:39;;;;;;;;;5.00;5.00;;;;;7.15;69.03;101426.72;4980356;28;11007;-64
2023/03/29 02:35:15;;;;;;;;;9.00;7.00;;;;;7.11;69.40;101421.84;4993612;28;11833;-65
2023/03/29 02:37:45;;;;;;;;;5.75;4.50;;;;;7.03;69.67;101417.25;4991876;28;10985;-66
2023/03/29 02:40:13;;;;;;;;;5.00;5.00;;;;;7.09;69.33;101400.59;4992078;28;11040;-66
2023/03/29 02:42:43;;;;;;;;;5.75;5.75;;;;;7.15;69.29;101402.63;4992511;28;10980;-65
2023/03/29 02:45:16;;;;;;;;;8.25;7.25;;;;;7.15;69.24;101383.03;5002034;28;11033;-67
2023/03/29 02:47:54;;;;;;;;;6.00;6.00;;;;;7.18;69.14;101374.69;5001882;28;11588;-66
2023/03/29 02:50:24;;;;;;;;;5.75;5.75;;;;;7.22;69.31;101372.56;5006201;28;11833;-66
2023/03/29 02:53:00;;;;;;;;;5.00;5.00;;;;;7.29;69.63;101382.47;5008720;28;11206;-65
2023/03/29 02:55:33;;;;;;;;;8.00;5.00;;;;;7.31;69.23;101382.28;4992125;28;11064;-66
2023/03/29 02:58:07;;;;;;;;;5.00;5.00;;;;;7.30;69.13;101376.09;4980343;28;10978;-65
2023/03/29 03:00:44;;;;;;;;;6.00;6.00;;;;;7.23;69.15;101377.72;4988602;28;11143;-65
2023/03/29 03:03:12;;;;;;;;;8.00;6.00;;;;;7.26;69.13;101376.59;4991772;28;11096;-65
2023/03/29 03:05:39;;;;;;;;;8.25;4.75;;;;;7.30;69.30;101367.22;4998622;28;11066;-67
2023/03/29 03:08:06;;;;;;;;;7.75;5.00;;;;;7.33;69.43;101370.44;4981411;28;11086;-66
2023/03/29 03:10:34;;;;;;;;;7.00;4.75;;;;;7.35;69.52;101371.09;5008329;28;11159;-66
2023/03/29 03:13:02;;;;;;;;;4.00;4.00;;;;;7.38;69.29;101370.78;4988870;28;11006;-65
2023/03/29 03:15:30;;;;;;;;;6.75;5.75;;;;;7.38;69.23;101368.09;4972638;28;11036;-66
2023/03/29 03:17:56;;;;;;;;;3.00;3.00;;;;;7.37;69.40;101357.53;4976835;28;12252;-65
2023/03/29 03:20:23;;;;;;;;;9.00;6.00;;;;;7.38;68.99;101362.75;4979844;28;10990;-65
2023/03/29 03:22:50;;;;;;;;;8.50;8.50;;;;;7.31;70.01;101359.03;5004501;28;11067;-65
2023/03/29 03:25:20;;;;;;;;;6.25;6.00;;;;;7.31;69.77;101364.38;4976188;28;11251;-65
2023/03/29 03:27:49;;;;;;;;;9.00;8.00;;;;;7.29;69.79;101357.50;4988934;28;11093;-67
2023/03/29 03:30:18;;;;;;;;;5.50;5.50;;;;;7.31;70.13;101361.72;4988627;28;11142;-67
2023/03/29 03:32:56;;;;;;;;;6.00;5.00;;;;;7.35;70.13;101356.88;4974799;28;11172;-66
2023/03/29 03:35:48;;;;;;;;;11.25;9.00;;;;;7.34;70.00;101349.84;4978551;28;11607;-66
2023/03/29 03:38:16;;;;;;;;;8.75;7.50;;;;;7.33;70.11;101351.69;4988977;28;11148;-67
2023/03/29 03:40:52;;;;;;;;;7.25;7.00;;;;;7.35;69.98;101348.84;4991546;28;11088;-65
2023/03/29 03:43:19;;;;;;;;;8.50;7.00;;;;;7.36;69.86;101337.13;4992763;28;11232;-66
2023/03/29 03:45:47;;;;;;;;;8.00;5.75;;;;;7.40;69.83;101352.69;4992187;28;11023;-65
2023/03/29 03:48:17;;;;;;;;;5.25;5.25;;;;;7.38;69.85;101354.72;4985682;28;11118;-64
2023/03/29 03:51:02;;;;;;;;;8.75;8.75;;;;;7.38;70.12;101351.19;5014227;28;11085;-65
2023/03/29 03:53:32;;;;;;;;;7.00;7.00;;;;;7.39;70.28;101356.38;4994901;28;11111;-66
2023/03/29 03:56:19;;;;;;;;;9.25;8.50;;;;;7.36;69.61;101355.88;4996654;28;11071;-65
2023/03/29 03:59:08;;;;;;;;;8.75;7.50;;;;;7.33;69.94;101351.69;4993329;28;11412;-66
2023/03/29 04:01:44;;;;;;;;;7.50;7.00;;;;;7.33;70.08;101346.34;5010631;28;11405;-67
2023/03/29 04:04:18;;;;;;;;;7.25;5.50;;;;;7.37;69.85;101350.38;5009817;23;11138;-67
2023/03/29 04:07:10;;;;;;;;;5.75;5.75;;;;;7.40;70.06;101355.38;4999997;28;11232;-67
2023/03/29 04:09:43;;;;;;;;;9.00;6.00;;;;;7.39;70.18;101342.16;5001789;28;10939;-67
2023/03/29 04:12:22;;;;;;;;;7.00;6.00;;;;;7.41;69.73;101346.38;4975755;28;11839;-66
2023/03/29 04:14:49;;;;;;;;;8.25;8.25;;;;;7.42;70.17;101352.56;4994679;28;11209;-67
2023/03/29 04:17:20;;;;;;;;;8.00;6.50;;;;;7.42;70.06;101350.72;5010203;28;11158;-67
2023/03/29 04:20:11;;;;;;;;;7.50;6.50;;;;;7.43;69.29;101351.56;5004825;28;11251;-67
2023/03/29 04:22:40;;;;;;;;;10.75;10.00;;;;;7.40;69.94;101344.66;4994939;28;11166;-67
2023/03/29 04:25:07;;;;;;;;;6.25;5.50;;;;;7.41;70.15;101342.81;4994638;28;12017;-66
2023/03/29 04:27:46;;;;;;;;;8.50;5.75;;;;;7.45;70.34;101336.13;5011063;28;10989;-66
2023/03/29 04:30:44;;;;;;;;;8.00;6.75;;;;;7.47;70.00;101342.19;5006252;28;11027;-66
2023/03/29 04:33:14;;;;;;;;;7.50;7.50;;;;;7.44;69.69;101335.31;5014370;28;10971;-66
2023/03/29 04:35:45;;;;;;;;;8.00;6.00;;;;;7.47;70.24;101331.47;4994603;28;10953;-67
2023/03/29 04:38:15;;;;;;;;;8.25;7.00;;;;;7.44;70.13;101329.94;4997015;28;10915;-67
2023/03/29 04:40:44;;;;;;;;;11.50;9.00;;;;;7.43;70.12;101333.63;4977846;28;11149;-66
2023/03/29 04:43:21;;;;;;;;;7.50;6.00;;;;;7.46;70.05;101328.97;4987344;28;11237;-67
2023/03/29 04:45:57;;;;;;;;;8.25;7.50;;;;;7.47;69.78;101326.13;5003128;28;11062;-67
2023/03/29 04:48:42;;;;;;;;;5.25;4.25;;;;;7.52;70.16;101339.03;4995955;28;10904;-67
2023/03/29 04:51:10;;;;;;;;;4.50;4.25;;;;;7.54;70.39;101331.69;4978073;28;10968;-67
2023/03/29 04:53:37;;;;;;;;;7.25;5.50;;;;;7.55;70.07;101320.78;4996738;28;10894;-68
2023/03/29 04:56:06;;;;;;;;;5.00;5.00;;;;;7.56;70.23;101322.47;5011914;28;11123;-67
2023/03/29 04:58:56;;;;;;;;;5.00;4.50;;;;;7.58;69.84;101325.81;5012152;28;10926;-66
2023/03/29 05:01:23;;;;;;;;;7.25;7.25;;;;;7.59;70.05;101318.63;5011227;28;10944;-66
2023/03/29 05:03:55;;;;;;;;;4.50;4.25;;;;;7.60;70.13;101318.44;5009990;28;10997;-66
2023/03/29 05:06:28;;;;;;;;;6.00;4.25;;;;;7.63;70.15;101317.28;4994039;28;10899;-66
2023/03/29 05:08:54;;;;;;;;;8.00;7.00;;;;;7.63;70.15;101323.50;5009758;28;10941;-66
2023/03/29 05:11:28;;;;;;;;;9.75;5.75;;;;;7.65;70.19;101323.31;4994034;28;11033;-67
2023/03/29 05:13:57;;;;;;;;;9.00;9.00;;;;;7.60;70.01;101317.63;5010187;28;10808;-67
2023/03/29 05:16:28;;;;;;;;;12.00;10.50;;;;;7.59;70.30;101321.31;5006395;28;11081;-67
2023/03/29 05:18:56;;;;;;;;;8.00;8.00;;;;;7.61;69.89;101330.84;4993922;28;11018;-67
2023/03/29 05:21:25;;;;;;;;;13.75;8.50;;;;;7.59;69.77;101329.34;4994206;28;10930;-67
2023/03/29 05:23:52;;;;;;;;;6.00;5.75;;;;;7.61;70.37;101340.72;5010120;28;11690;-67
2023/03/29 05:26:44;;;;;;;;;8.75;7.50;;;;;7.64;70.77;101337.72;4992650;28;10933;-67
2023/03/29 05:29:11;;;;;;;;;13.25;11.00;;;;;7.63;70.33;101322.66;4992724;28;11125;-67
2023/03/29 05:31:39;;;;;;;;;6.50;6.50;;;;;7.63;70.54;101322.66;5009480;28;11212;-67
2023/03/29 05:34:07;;;;;;;;;8.50;7.25;;;;;7.63;70.30;101325.34;5009029;28;10930;-67
2023/03/29 05:36:41;;;;;;;;;7.25;6.25;;;;;7.61;70.18;101328.16;4993543;28;11035;-67
2023/03/29 05:39:09;;;;;;;;;7.25;7.25;;;;;7.60;70.41;101329.16;4974160;28;11172;-67
2023/03/29 05:41:36;;;;;;;;;10.50;10.50;;;;;7.61;70.88;101327.31;4973440;28;11078;-67
2023/03/29 05:44:39;;;;;;;;;8.00;8.00;;;;;7.63;70.59;101323.50;4997607;28;11403;-67
2023/03/29 05:47:13;;;;;;;;;8.75;7.25;;;;;7.67;70.82;101332.03;5007570;28;11763;-67
2023/03/29 05:49:40;;;;;;;;;8.00;5.25;;;;;7.64;70.47;101332.38;4984764;28;11079;-67
2023/03/29 05:52:19;;;;;;;;;10.75;10.75;;;;;7.60;70.56;101333.69;4989879;28;11048;-67
2023/03/29 05:54:46;;;;;;;;;5.50;5.50;;;;;7.63;71.05;101333.38;4989557;28;12057;-67
2023/03/29 05:57:13;;;;;;;;;8.50;8.50;;;;;7.65;71.26;101326.84;5000272;28;10995;-67
2023/03/29 05:59:41;;;;;;;;;6.25;5.50;;;;;7.69;71.11;101330.03;4992770;28;11076;-67
2023/03/29 06:02:10;;;;;;;;;10.50;8.25;;;;;7.72;70.54;101331.56;5008196;28;10961;-67
2023/03/29 06:04:42;;;;;;;;;5.00;4.00;;;;;7.75;70.99;101332.06;5009259;28;11101;-66
2023/03/29 06:07:34;;;;;;;;;4.75;4.75;;;;;7.76;71.38;101336.41;4996573;28;10875;-67
2023/03/29 06:10:24;;;;;;;;;5.25;5.00;;;;;7.75;71.07;101326.72;5000575;28;10895;-67
2023/03/29 06:13:01;;;;;;;;;9.50;8.00;;;;;7.72;70.72;101340.44;4992308;28;10961;-66
2023/03/29 06:15:31;;;;;;;;;8.00;6.25;;;;;7.77;71.02;101339.94;4992017;28;11239;-66
2023/03/29 06:18:03;;;;;;;;;11.00;9.00;;;;;7.77;70.73;101332.72;4975247;28;11066;-66
2023/03/29 06:20:30;;;;;;;;;10.25;9.00;;;;;7.78;71.34;101339.78;4993075;28;10997;-66
2023/03/29 06:23:02;;;;;;;;;9.75;8.25;;;;;7.82;70.95;101348.31;5005626;28;11300;-66
2023/03/29 06:25:29;;;;;;;;;10.75;7.00;;;;;7.83;71.22;101342.81;4990588;28;10958;-68
2023/03/29 06:27:57;;;;;;;;;12.75;7.00;;;;;7.84;70.64;101339.13;4987871;28;10914;-66
2023/03/29 06:30:23;;;;;;;;;13.25;8.00;;;;;7.89;71.68;101343.97;4992654;28;11777;-66
2023/03/29 06:32:53;;;;;;;;;12.50;9.50;;;;;7.91;71.17;101347.34;4962871;28;11191;-66
2023/03/29 06:35:44;;;;;;;;;10.75;9.25;;;;;7.93;71.48;101345.31;4972895;28;11064;-66
2023/03/29 06:38:15;;;;;;;;;11.00;11.00;;;;;7.95;71.53;101339.81;4974265;28;10931;-66
2023/03/29 06:41:07;;;;;;;;;22.75;22.75;;;;;7.95;71.40;101345.19;4981804;28;11210;-66
2023/03/29 06:43:54;;;;;;;;;60.25;47.00;;;;;7.97;71.78;101346.69;4986131;28;11271;-66
2023/03/29 06:46:23;;;;;;;;;34.75;30.00;;;;;8.02;71.87;101346.19;4981516;28;12386;-66
2023/03/29 06:48:55;;;;;;;;;13.00;10.50;;;;;8.03;71.54;101348.72;5006976;28;12355;-66
2023/03/29 06:51:27;;;;;;;;;17.00;14.50;;;;;8.08;71.82;101342.84;5008410;28;11700;-66
2023/03/29 06:53:54;;;;;;;;;13.75;12.25;;;;;8.10;71.72;101344.38;5009710;28;11337;-66
2023/03/29 06:56:21;;;;;;;;;12.00;11.25;;;;;8.11;71.55;101339.84;4991319;28;11084;-65
2023/03/29 06:58:59;;;;;;;;;12.00;10.50;;;;;8.14;71.44;101340.34;5009348;28;11052;-66
2023/03/29 07:01:33;;;;;;;;;11.75;11.00;;;;;8.19;71.67;101353.25;4976865;28;11055;-66
2023/03/29 07:04:10;;;;;;;;;14.25;12.50;;;;;8.22;71.56;101350.22;5008076;28;11008;-66
2023/03/29 07:07:06;;;;;;;;;16.00;12.75;;;;;8.25;71.91;101355.25;5004272;28;11061;-66
2023/03/29 07:09:34;;;;;;;;;10.50;9.25;;;;;8.29;72.36;101358.47;4992347;28;10898;-66
2023/03/29 07:12:25;;;;;;;;;13.00;13.00;;;;;8.33;72.48;101357.13;5009407;28;11049;-66
2023/03/29 07:14:56;;;;;;;;;10.25;10.00;;;;;8.35;71.56;101364.00;4991712;28;11729;-66
2023/03/29 07:17:27;;;;;;;;;16.75;15.75;;;;;8.38;72.51;101362.84;4990600;28;11143;-66
2023/03/29 07:19:54;;;;;;;;;11.25;11.25;;;;;8.41;72.20;101363.34;4992147;28;11824;-66
2023/03/29 07:22:37;;;;;;;;;18.50;17.25;;;;;8.42;72.40;101361.50;4966233;28;11717;-66
2023/03/29 07:25:07;;;;;;;;;20.75;18.25;;;;;8.45;71.89;101354.97;4974872;28;11156;-66
2023/03/29 07:27:38;;;;;;;;;18.50;17.00;;;;;8.49;72.07;101354.47;4986915;28;11149;-66
2023/03/29 07:30:09;;;;;;;;;27.00;24.25;;;;;8.52;71.72;101354.13;4995675;28;11889;-66
2023/03/29 07:32:38;;;;;;;;;13.50;13.50;;;;;8.58;71.78;101353.44;4995642;28;11182;-66
2023/03/29 07:35:22;;;;;;;;;20.25;16.25;;;;;8.62;72.47;101352.09;4995573;28;11011;-66
2023/03/29 07:37:49;;;;;;;;;13.75;13.00;;;;;8.65;72.72;101353.63;4994998;28;10987;-66
2023/03/29 07:40:21;;;;;;;;;18.75;17.50;;;;;8.68;72.01;101360.50;4995532;28;10732;-66
2023/03/29 07:42:55;;;;;;;;;23.00;21.50;;;;;8.67;72.47;101357.00;5013312;28;11057;-68
2023/03/29 07:45:25;;;;;;;;;18.25;18.25;;;;;8.72;72.57;101361.84;4995572;28;11167;-66
2023/03/29 07:48:04;;;;;;;;;32.25;26.75;;;;;8.74;72.75;101357.13;4994582;28;11099;-66
2023/03/29 07:50:57;;;;;;;;;20.00;15.50;;;;;8.72;73.01;101356.47;5009611;28;11412;-66
2023/03/29 07:53:29;;;;;;;;;17.75;15.75;;;;;8.77;72.98;101362.16;5008572;28;10897;-67
2023/03/29 07:55:58;;;;;;;;;12.00;12.00;;;;;8.83;73.07;101359.66;4975669;28;11042;-68
2023/03/29 07:58:43;;;;;;;;;17.50;16.25;;;;;8.82;73.26;101357.13;5009228;28;10946;-67
2023/03/29 08:01:14;;;;;;;;;20.00;14.25;;;;;8.88;73.15;101372.56;5008674;28;10909;-67
2023/03/29 08:04:03;;;;;;;;;23.50;21.25;;;;;8.93;73.61;101362.16;5012592;28;10921;-67
2023/03/29 08:06:56;;;;;;;;;19.50;17.25;;;;;8.98;73.06;101367.00;5012024;28;11079;-67
2023/03/29 08:09:32;;;;;;;;;18.25;15.50;;;;;9.01;73.32;101363.97;4994540;28;11858;-67
2023/03/29 08:11:58;;;;;;;;;8.50;8.50;;;;;9.06;73.77;101358.94;4995076;28;11100;-67
2023/03/29 08:14:32;;;;;;;;;11.00;9.00;;;;;9.12;73.49;101364.47;4993460;28;10702;-68
2023/03/29 08:17:21;;;;;;;;;10.75;10.00;;;;;9.21;73.25;101356.38;5011764;28;10744;-67
2023/03/29 08:19:49;;;;;;;;;12.00;12.00;;;;;9.27;73.48;101359.19;4994908;28;10898;-68
2023/03/29 08:22:19;;;;;;;;;16.25;11.25;;;;;9.30;73.92;101364.22;5007844;28;10911;-67
2023/03/29 08:25:18;;;;;;;;;16.00;16.00;;;;;9.35;73.92;101351.09;4981932;28;10930;-67
2023/03/29 08:27:49;;;;;;;;;21.50;19.00;;;;;9.44;74.08;101359.13;4991386;28;11802;-67
2023/03/29 08:30:26;;;;;;;;;21.25;17.75;;;;;9.49;74.03;101351.41;4981783;28;10999;-68
2023/03/29 08:32:55;;;;;;;;;20.50;16.50;;;;;9.52;74.19;101338.47;4994532;28;10952;-67
2023/03/29 08:35:22;;;;;;;;;21.25;16.00;;;;;9.51;74.36;101335.94;5010117;28;10817;-66
2023/03/29 08:38:09;;;;;;;;;20.00;16.00;;;;;9.55;74.54;101335.41;5011340;28;10990;-67
2023/03/29 08:40:36;;;;;;;;;21.50;17.00;;;;;9.63;74.52;101329.16;4994481;28;10858;-67
2023/03/29 08:43:28;;;;;;;;;19.25;16.25;;;;;9.72;74.19;101341.53;4994062;28;11545;-67
2023/03/29 08:46:48;;;;;;;;;22.50;18.75;;;;;9.78;74.24;101331.94;4997762;28;10833;-67
2023/03/29 08:49:25;;;;;;;;;22.75;20.50;;;;;9.82;74.85;101344.00;5009944;28;10880;-68
2023/03/29 08:51:57;;;;;;;;;25.50;21.00;;;;;9.85;74.45;101338.28;4990678;28;11010;-67
2023/03/29 08:54:27;;;;;;;;;21.00;16.25;;;;;9.98;74.13;101349.28;4990866;28;10834;-67
2023/03/29 08:57:39;;;;;;;;;26.50;21.00;;;;;10.03;74.12;101356.81;4972016;28;10913;-68
2023/03/29 09:00:20;;;;;;;;;22.75;22.75;;;;;10.11;74.21;101360.28;4993242;28;10946;-67
2023/03/29 09:02:50;;;;;;;;;19.50;19.50;;;;;10.15;73.89;101355.38;4993785;28;11002;-67
2023/03/29 09:05:24;;;;;;;;;21.75;20.25;;;;;10.18;73.84;101359.59;5010789;28;10780;-67
2023/03/29 09:08:12;;;;;;;;;26.25;22.00;;;;;10.19;74.13;101358.56;4993050;28;10908;-67
2023/03/29 09:10:46;;;;;;;;;24.75;24.75;;;;;10.14;74.29;101364.50;5010728;28;11153;-68
2023/03/29 09:13:41;;;;;;;;;24.25;19.50;;;;;10.21;74.25;101359.22;5011502;28;10939;-68
2023/03/29 09:16:40;;;;;;;;;25.00;22.50;;;;;10.28;74.10;101357.50;5010950;28;10904;-67
2023/03/29 09:19:25;;;;;;;;;17.50;17.50;;;;;10.29;74.14;101362.72;4986476;28;10758;-67
2023/03/29 09:22:08;;;;;;;;;21.50;21.00;;;;;10.28;74.05;101366.41;5010200;28;10753;-68
2023/03/29 09:24:45;;;;;;;;;29.75;24.00;;;;;10.28;74.01;101363.72;5010869;28;10669;-68
2023/03/29 09:27:31;;;;;;;;;22.75;21.00;;;;;10.34;74.32;101370.25;4993046;28;10948;-67
2023/03/29 09:30:30;;;;;;;;;23.00;22.75;;;;;10.45;74.19;101368.97;4993429;28;10780;-67
2023/03/29 09:33:30;;;;;;;;;20.50;19.50;;;;;10.47;73.76;101369.66;5010965;28;10834;-68
2023/03/29 09:36:45;;;;;;;;;21.75;17.25;;;;;10.51;73.86;101370.97;4993109;28;11680;-67
2023/03/29 09:39:13;;;;;;;;;17.00;13.50;;;;;10.62;74.03;101365.16;4893291;29;10711;-66
2023/03/29 09:41:57;;;;;;;;;17.25;16.75;;;;;10.76;73.67;101350.88;4971817;28;10602;-67
2023/03/29 09:44:30;;;;;;;;;20.25;19.75;;;;;10.81;73.32;101356.53;4992718;28;10553;-67
2023/03/29 09:47:28;;;;;;;;;24.75;24.50;;;;;10.84;73.52;101353.50;5005126;28;10446;-67
2023/03/29 09:50:03;;;;;;;;;19.75;15.50;;;;;10.89;73.25;101350.25;4973690;28;11354;-67
2023/03/29 09:52:31;;;;;;;;;21.75;20.75;;;;;10.89;73.00;101356.47;4985219;28;10509;-68
2023/03/29 09:55:14;;;;;;;;;32.25;24.50;;;;;10.89;73.58;101361.84;4992471;28;10750;-68
2023/03/29 09:58:06;;;;;;;;;19.75;16.00;;;;;10.90;73.85;101357.31;5009738;28;10758;-66
2023/03/29 10:00:38;;;;;;;;;28.75;23.50;;;;;10.94;73.58;101355.94;5008684;28;10722;-68
2023/03/29 10:03:16;;;;;;;;;20.25;16.75;;;;;11.01;73.82;101356.00;5006804;23;10675;31
2023/03/29 10:05:52;;;;;;;;;24.50;23.50;;;;;11.05;73.92;101346.53;4951305;28;11161;-68
2023/03/29 10:08:26;;;;;;;;;21.75;19.50;;;;;11.08;73.68;101347.00;4936653;28;10691;-67
2023/03/29 10:11:00;;;;;;;;;27.50;22.50;;;;;11.13;73.65;101349.16;4934996;28;10545;-67
2023/03/29 10:13:30;;;;;;;;;28.75;24.25;;;;;11.18;73.46;101340.50;4963529;28;10585;-67
2023/03/29 10:16:08;;;;;;;;;21.50;20.25;;;;;11.24;73.44;101339.78;4970074;28;10741;-67
2023/03/29 10:18:40;;;;;;;;;22.50;20.25;;;;;11.32;73.42;101347.75;4932744;29;10506;-67
2023/03/29 10:21:11;;;;;;;;;28.00;26.50;;;;;11.28;73.55;101341.91;4933035;28;10603;-66
2023/03/29 10:23:38;;;;;;;;;29.00;25.75;;;;;11.31;73.48;101341.53;4970265;28;10610;-67
2023/03/29 10:26:16;;;;;;;;;35.25;29.00;;;;;11.36;73.38;101341.81;4969200;28;10670;-67
2023/03/29 10:28:43;;;;;;;;;29.50;26.50;;;;;11.35;73.38;101342.00;4932766;29;10741;-67
2023/03/29 10:31:18;;;;;;;;;33.00;32.00;;;;;11.36;73.63;101346.38;4932619;28;10875;-67
2023/03/29 10:33:51;;;;;;;;;37.00;31.25;;;;;11.37;73.94;101338.09;4952799;28;10851;-67
2023/03/29 10:36:18;;;;;;;;;40.25;33.50;;;;;11.34;74.11;101326.84;4966987;28;10699;-67
2023/03/29 10:38:45;;;;;;;;;38.50;29.75;;;;;11.37;74.27;101334.56;4955496;28;10859;-68
2023/03/29 10:41:16;;;;;;;;;44.75;36.25;;;;;11.33;74.35;101334.09;4970681;28;10858;-67
2023/03/29 10:43:48;;;;;;;;;38.50;36.75;;;;;11.35;74.20;101328.53;4934630;28;10842;-67
2023/03/29 10:46:32;;;;;;;;;35.00;34.25;;;;;11.30;74.47;101315.63;4954731;28;10904;-68
2023/03/29 10:49:08;;;;;;;;;32.50;30.00;;;;;11.34;74.66;101322.31;4971146;28;10930;-68
2023/03/29 10:51:36;;;;;;;;;35.75;30.75;;;;;11.37;74.40;101321.91;4962076;28;10687;-68
2023/03/29 10:54:04;;;;;;;;;40.50;37.25;;;;;11.33;74.46;101315.22;4970792;28;11025;-67
2023/03/29 10:57:03;;;;;;;;;31.50;28.75;;;;;11.36;74.70;101306.78;4950118;28;11163;-67
2023/03/29 11:00:05;;;;;;;;;34.25;27.50;;;;;11.37;74.72;101299.50;4928881;29;10776;-67
2023/03/29 11:02:38;;;;;;;;;36.00;36.00;;;;;11.43;74.70;101301.47;4958884;28;10794;-66
2023/03/29 11:05:31;;;;;;;;;44.75;37.25;;;;;11.44;74.53;101294.22;4974441;28;10872;-66
2023/03/29 11:08:04;;;;;;;;;42.00;33.00;;;;;11.52;74.82;101294.94;4969316;28;10835;-65
2023/03/29 11:10:44;;;;;;;;;35.00;29.50;;;;;11.62;74.64;101300.84;4974640;28;11044;-67
2023/03/29 11:13:29;;;;;;;;;26.75;25.75;;;;;11.69;74.64;101292.84;4958508;28;10742;-67
2023/03/29 11:16:15;;;;;;;;;36.75;33.00;;;;;11.69;74.47;101290.16;4956668;28;10664;-67
2023/03/29 11:19:02;;;;;;;;;36.25;32.25;;;;;11.70;74.27;101305.28;4936322;29;10847;-66
2023/03/29 11:21:57;;;;;;;;;34.00;28.25;;;;;11.73;74.60;101302.22;4940042;28;10786;-66
2023/03/29 11:24:53;;;;;;;;;33.75;33.00;;;;;11.74;74.20;101303.88;4954913;28;10752;-66
2023/03/29 11:27:40;;;;;;;;;40.50;34.25;;;;;11.68;74.56;101304.66;4947549;28;10874;-65
2023/03/29 11:30:14;;;;;;;;;30.00;24.25;;;;;11.65;74.94;101305.03;4974508;28;10930;-66
2023/03/29 11:32:53;;;;;;;;;32.00;32.00;;;;;11.60;75.19;101304.78;4956562;28;10841;-69
2023/03/29 11:35:57;;;;;;;;;30.75;26.25;;;;;11.61;75.24;101315.38;4973908;28;10936;-69
2023/03/29 11:38:55;;;;;;;;;34.00;30.50;;;;;11.55;75.82;101301.81;4970272;28;10668;-67
2023/03/29 11:41:29;;;;;;;;;30.00;28.25;;;;;11.56;76.00;101301.63;4948209;28;10775;-65
2023/03/29 11:44:16;;;;;;;;;36.00;33.75;;;;;11.64;75.72;101308.78;4973742;28;10676;-66
2023/03/29 11:46:45;;;;;;;;;33.75;28.00;;;;;11.73;75.74;101315.72;4967804;28;11672;-66
2023/03/29 11:49:24;;;;;;;;;44.75;36.75;;;;;11.76;75.59;101323.44;4969228;28;10830;-66
2023/03/29 11:52:13;;;;;;;;;32.50;29.75;;;;;11.83;75.41;101327.06;4973223;28;11154;-65
2023/03/29 11:55:02;;;;;;;;;37.50;36.00;;;;;11.92;75.28;101322.41;4973476;28;10850;-66
2023/03/29 11:57:59;;;;;;;;;44.50;33.00;;;;;11.88;75.30;101316.53;4962864;28;10878;-66
2023/03/29 12:00:31;;;;;;;;;40.75;31.50;;;;;11.90;75.31;101305.53;4969739;28;11127;-65
2023/03/29 12:03:12;;;;;;;;;42.00;35.75;;;;;11.92;75.39;101300.81;4938374;29;10867;-69
2023/03/29 12:05:41;;;;;;;;;44.25;37.50;;;;;11.88;75.44;101300.34;4934815;29;11254;-67
2023/03/29 12:08:27;;;;;;;;;29.25;27.50;;;;;11.92;75.38;101299.97;4966824;28;10931;-67
2023/03/29 12:11:06;;;;;;;;;41.00;37.50;;;;;11.95;75.27;101296.88;4954154;28;10738;-66
2023/03/29 12:13:42;;;;;;;;;38.25;34.75;;;;;11.94;75.28;101296.03;4966760;28;11517;-65
2023/03/29 12:16:19;;;;;;;;;28.50;26.25;;;;;11.99;75.32;101301.72;4953079;28;10900;-65
2023/03/29 12:18:50;;;;;;;;;35.50;34.00;;;;;11.93;75.29;101302.47;4971516;28;10668;-66
2023/03/29 12:21:22;;;;;;;;;28.50;22.50;;;;;11.93;75.17;101302.47;4972569;28;10947;-68